Decoded Metar for LFLP (ANNECY in FRANCE) (IATA:NCY) | Meteo·Mobile Aviation Weather
aviador You're here:

LFLP Decoded Metar

ANNECY in FRANCE
Report Time2019-04-20 10:00:00
UTC Time2019-04-20 10:26:24
Flight Rules vfr VFR
WindVRB at 01 kt
Visibility9999 m
Phenomena:N/A
Clouds:N/A
Expected CloudBase > 6,400 ft AGL from Temp-Dew spread
CeilingNone
Temp20°C (ISA +8)
Dew Point04°C (35% RH)
AAT18.3°C
QNH1024 hPa
Density Alt2,201 ft
Elevation1,519 ft
Report Wrong Elevation
Raw Report
METAR LFLP 201000Z AUTO VRB01KT CAVOK 20/04 Q1024 NOSIG=

Extra information for LFLP:More info

Metar Taf Metar & Taf Last 4 Metars F.Rules Stats Wind Profile Meteogram Temp Stats Airport Information Weather charts Add Link Nearby VenuesMetar ALERT Operation Metar Decoded Social comments